sensor_id;sensor_type;location;lat;lon;timestamp;P1;durP1;ratioP1;P2;durP2;ratioP2
18929;SDS011;43305;52.186;5.598;2023-03-31T00:02:20;14.40;;;2.83;;
18929;SDS011;43305;52.186;5.598;2023-03-31T00:04:55;19.58;;;3.40;;
18929;SDS011;43305;52.186;5.598;2023-03-31T00:07:26;17.02;;;3.25;;
18929;SDS011;43305;52.186;5.598;2023-03-31T00:12:44;18.70;;;3.00;;
18929;SDS011;43305;52.186;5.598;2023-03-31T00:15:17;18.25;;;3.13;;
18929;SDS011;43305;52.186;5.598;2023-03-31T00:17:52;15.10;;;3.33;;
18929;SDS011;43305;52.186;5.598;2023-03-31T00:20:24;14.20;;;3.28;;
18929;SDS011;43305;52.186;5.598;2023-03-31T00:23:19;16.25;;;3.28;;
18929;SDS011;43305;52.186;5.598;2023-03-31T00:25:57;17.38;;;3.85;;
18929;SDS011;43305;52.186;5.598;2023-03-31T00:28:30;18.65;;;3.58;;
18929;SDS011;43305;52.186;5.598;2023-03-31T00:30:59;17.15;;;3.40;;
18929;SDS011;43305;52.186;5.598;2023-03-31T00:33:31;15.13;;;3.22;;
18929;SDS011;43305;52.186;5.598;2023-03-31T00:36:01;18.13;;;3.65;;
18929;SDS011;43305;52.186;5.598;2023-03-31T00:38:33;17.08;;;3.80;;
18929;SDS011;43305;52.186;5.598;2023-03-31T00:41:21;17.95;;;3.13;;
18929;SDS011;43305;52.186;5.598;2023-03-31T00:44:04;14.13;;;3.30;;
18929;SDS011;43305;52.186;5.598;2023-03-31T00:50:09;17.20;;;3.00;;
18929;SDS011;43305;52.186;5.598;2023-03-31T00:52:47;15.45;;;2.97;;
18929;SDS011;43305;52.186;5.598;2023-03-31T00:55:26;15.32;;;2.88;;
18929;SDS011;43305;52.186;5.598;2023-03-31T00:58:02;9.57;;;2.60;;
18929;SDS011;43305;52.186;5.598;2023-03-31T01:00:38;16.70;;;2.83;;
18929;SDS011;43305;52.186;5.598;2023-03-31T01:03:14;10.63;;;2.63;;
18929;SDS011;43305;52.186;5.598;2023-03-31T01:05:48;11.75;;;2.72;;
18929;SDS011;43305;52.186;5.598;2023-03-31T01:08:20;17.30;;;3.25;;
18929;SDS011;43305;52.186;5.598;2023-03-31T01:10:55;12.48;;;2.60;;
18929;SDS011;43305;52.186;5.598;2023-03-31T01:16:32;12.48;;;2.50;;
18929;SDS011;43305;52.186;5.598;2023-03-31T01:19:00;14.93;;;2.80;;
18929;SDS011;43305;52.186;5.598;2023-03-31T01:24:52;14.65;;;3.50;;
18929;SDS011;43305;52.186;5.598;2023-03-31T01:28:05;11.68;;;3.05;;
18929;SDS011;43305;52.186;5.598;2023-03-31T01:33:52;11.38;;;2.88;;
18929;SDS011;43305;52.186;5.598;2023-03-31T01:36:57;11.10;;;3.10;;
18929;SDS011;43305;52.186;5.598;2023-03-31T01:40:03;10.23;;;2.55;;
18929;SDS011;43305;52.186;5.598;2023-03-31T01:43:02;13.18;;;2.92;;
18929;SDS011;43305;52.186;5.598;2023-03-31T01:45:38;14.05;;;2.85;;
18929;SDS011;43305;52.186;5.598;2023-03-31T01:48:28;12.07;;;3.45;;
18929;SDS011;43305;52.186;5.598;2023-03-31T01:51:18;16.08;;;3.47;;
18929;SDS011;43305;52.186;5.598;2023-03-31T01:53:53;15.48;;;3.60;;
18929;SDS011;43305;52.186;5.598;2023-03-31T01:56:32;10.85;;;3.50;;
18929;SDS011;43305;52.186;5.598;2023-03-31T01:59:17;13.70;;;3.58;;
18929;SDS011;43305;52.186;5.598;2023-03-31T02:01:51;14.68;;;3.90;;
18929;SDS011;43305;52.186;5.598;2023-03-31T02:04:32;14.30;;;3.85;;
18929;SDS011;43305;52.186;5.598;2023-03-31T02:07:10;11.23;;;3.53;;
18929;SDS011;43305;52.186;5.598;2023-03-31T02:09:50;14.23;;;3.83;;
18929;SDS011;43305;52.186;5.598;2023-03-31T02:12:26;18.30;;;3.60;;
18929;SDS011;43305;52.186;5.598;2023-03-31T02:14:57;14.15;;;3.35;;
18929;SDS011;43305;52.186;5.598;2023-03-31T02:17:30;14.60;;;3.97;;
18929;SDS011;43305;52.186;5.598;2023-03-31T02:20:05;13.35;;;3.95;;
18929;SDS011;43305;52.186;5.598;2023-03-31T02:22:42;12.32;;;3.60;;
18929;SDS011;43305;52.186;5.598;2023-03-31T02:25:16;11.30;;;3.33;;
18929;SDS011;43305;52.186;5.598;2023-03-31T02:27:51;14.18;;;3.42;;
18929;SDS011;43305;52.186;5.598;2023-03-31T02:30:27;12.80;;;3.40;;
18929;SDS011;43305;52.186;5.598;2023-03-31T02:33:01;12.73;;;3.35;;
18929;SDS011;43305;52.186;5.598;2023-03-31T02:35:36;15.15;;;3.22;;
18929;SDS011;43305;52.186;5.598;2023-03-31T02:38:03;13.45;;;3.20;;
18929;SDS011;43305;52.186;5.598;2023-03-31T02:40:38;14.77;;;3.53;;
18929;SDS011;43305;52.186;5.598;2023-03-31T02:43:12;13.75;;;3.78;;
18929;SDS011;43305;52.186;5.598;2023-03-31T02:45:44;14.05;;;3.50;;
18929;SDS011;43305;52.186;5.598;2023-03-31T02:48:16;15.25;;;2.78;;
18929;SDS011;43305;52.186;5.598;2023-03-31T02:51:00;15.60;;;3.10;;
18929;SDS011;43305;52.186;5.598;2023-03-31T02:53:46;15.23;;;3.75;;
18929;SDS011;43305;52.186;5.598;2023-03-31T02:56:25;12.52;;;3.40;;
18929;SDS011;43305;52.186;5.598;2023-03-31T02:59:25;15.77;;;3.42;;
18929;SDS011;43305;52.186;5.598;2023-03-31T03:02:09;10.70;;;3.30;;
18929;SDS011;43305;52.186;5.598;2023-03-31T03:07:42;20.85;;;3.83;;
18929;SDS011;43305;52.186;5.598;2023-03-31T03:10:19;12.88;;;3.45;;
18929;SDS011;43305;52.186;5.598;2023-03-31T03:12:59;13.18;;;2.97;;
18929;SDS011;43305;52.186;5.598;2023-03-31T03:15:40;14.07;;;3.13;;
18929;SDS011;43305;52.186;5.598;2023-03-31T03:18:10;16.35;;;2.80;;
18929;SDS011;43305;52.186;5.598;2023-03-31T03:20:43;9.63;;;2.33;;
18929;SDS011;43305;52.186;5.598;2023-03-31T03:23:13;10.93;;;2.10;;
18929;SDS011;43305;52.186;5.598;2023-03-31T03:25:41;12.73;;;2.42;;
18929;SDS011;43305;52.186;5.598;2023-03-31T03:28:12;12.35;;;2.15;;
18929;SDS011;43305;52.186;5.598;2023-03-31T03:30:43;10.98;;;2.20;;
18929;SDS011;43305;52.186;5.598;2023-03-31T03:33:12;14.52;;;2.33;;
18929;SDS011;43305;52.186;5.598;2023-03-31T03:35:41;10.93;;;2.20;;
18929;SDS011;43305;52.186;5.598;2023-03-31T03:38:10;9.85;;;2.15;;
18929;SDS011;43305;52.186;5.598;2023-03-31T03:40:37;11.00;;;2.20;;
18929;SDS011;43305;52.186;5.598;2023-03-31T03:43:06;13.30;;;2.60;;
18929;SDS011;43305;52.186;5.598;2023-03-31T03:45:36;8.52;;;2.17;;
18929;SDS011;43305;52.186;5.598;2023-03-31T03:48:05;10.57;;;2.45;;
18929;SDS011;43305;52.186;5.598;2023-03-31T03:50:34;13.63;;;2.58;;
18929;SDS011;43305;52.186;5.598;2023-03-31T03:53:02;13.88;;;2.70;;
18929;SDS011;43305;52.186;5.598;2023-03-31T03:55:32;9.95;;;2.47;;
18929;SDS011;43305;52.186;5.598;2023-03-31T03:58:00;13.43;;;2.85;;
18929;SDS011;43305;52.186;5.598;2023-03-31T04:00:27;14.38;;;3.03;;
18929;SDS011;43305;52.186;5.598;2023-03-31T04:02:55;12.82;;;2.95;;
18929;SDS011;43305;52.186;5.598;2023-03-31T04:05:26;14.77;;;2.50;;
18929;SDS011;43305;52.186;5.598;2023-03-31T04:07:53;12.05;;;2.38;;
18929;SDS011;43305;52.186;5.598;2023-03-31T04:10:24;9.65;;;2.65;;
18929;SDS011;43305;52.186;5.598;2023-03-31T04:12:51;10.07;;;2.33;;
18929;SDS011;43305;52.186;5.598;2023-03-31T04:15:19;9.10;;;2.05;;
18929;SDS011;43305;52.186;5.598;2023-03-31T04:17:47;11.25;;;2.30;;
18929;SDS011;43305;52.186;5.598;2023-03-31T04:20:17;6.32;;;1.88;;
18929;SDS011;43305;52.186;5.598;2023-03-31T04:22:48;11.65;;;2.08;;
18929;SDS011;43305;52.186;5.598;2023-03-31T04:25:17;9.75;;;2.15;;
18929;SDS011;43305;52.186;5.598;2023-03-31T04:27:48;11.25;;;2.10;;
18929;SDS011;43305;52.186;5.598;2023-03-31T04:30:20;8.98;;;2.10;;
18929;SDS011;43305;52.186;5.598;2023-03-31T04:32:49;11.38;;;2.28;;
18929;SDS011;43305;52.186;5.598;2023-03-31T04:35:21;9.75;;;1.95;;
18929;SDS011;43305;52.186;5.598;2023-03-31T04:37:53;12.55;;;2.00;;
18929;SDS011;43305;52.186;5.598;2023-03-31T04:40:26;12.60;;;2.20;;
18929;SDS011;43305;52.186;5.598;2023-03-31T04:42:55;9.45;;;2.17;;
18929;SDS011;43305;52.186;5.598;2023-03-31T04:45:23;8.07;;;2.20;;
18929;SDS011;43305;52.186;5.598;2023-03-31T04:47:51;8.95;;;2.60;;
18929;SDS011;43305;52.186;5.598;2023-03-31T04:50:18;11.05;;;2.70;;
18929;SDS011;43305;52.186;5.598;2023-03-31T04:52:46;12.95;;;3.00;;
18929;SDS011;43305;52.186;5.598;2023-03-31T04:55:15;12.80;;;3.22;;
18929;SDS011;43305;52.186;5.598;2023-03-31T04:57:43;15.52;;;3.45;;
18929;SDS011;43305;52.186;5.598;2023-03-31T05:00:11;12.32;;;3.88;;
18929;SDS011;43305;52.186;5.598;2023-03-31T05:02:42;11.23;;;3.47;;
18929;SDS011;43305;52.186;5.598;2023-03-31T05:05:09;10.95;;;3.85;;
18929;SDS011;43305;52.186;5.598;2023-03-31T05:07:40;15.02;;;4.20;;
18929;SDS011;43305;52.186;5.598;2023-03-31T05:10:10;19.05;;;4.68;;
18929;SDS011;43305;52.186;5.598;2023-03-31T05:12:39;15.02;;;4.40;;
18929;SDS011;43305;52.186;5.598;2023-03-31T05:15:06;9.85;;;4.05;;
18929;SDS011;43305;52.186;5.598;2023-03-31T05:17:37;19.05;;;4.32;;
18929;SDS011;43305;52.186;5.598;2023-03-31T05:20:05;14.00;;;4.15;;
18929;SDS011;43305;52.186;5.598;2023-03-31T05:22:42;12.43;;;3.95;;
18929;SDS011;43305;52.186;5.598;2023-03-31T05:25:20;11.68;;;3.85;;
18929;SDS011;43305;52.186;5.598;2023-03-31T05:27:49;19.77;;;3.97;;
18929;SDS011;43305;52.186;5.598;2023-03-31T05:30:18;17.65;;;4.25;;
18929;SDS011;43305;52.186;5.598;2023-03-31T05:32:50;11.05;;;3.45;;
18929;SDS011;43305;52.186;5.598;2023-03-31T05:35:17;15.07;;;3.53;;
18929;SDS011;43305;52.186;5.598;2023-03-31T05:37:44;12.77;;;2.95;;
18929;SDS011;43305;52.186;5.598;2023-03-31T05:40:15;11.48;;;3.10;;
18929;SDS011;43305;52.186;5.598;2023-03-31T05:42:43;14.20;;;2.75;;
18929;SDS011;43305;52.186;5.598;2023-03-31T05:45:17;9.85;;;2.70;;
18929;SDS011;43305;52.186;5.598;2023-03-31T05:47:47;10.48;;;2.92;;
18929;SDS011;43305;52.186;5.598;2023-03-31T05:50:15;18.20;;;3.03;;
18929;SDS011;43305;52.186;5.598;2023-03-31T05:52:41;12.57;;;3.00;;
18929;SDS011;43305;52.186;5.598;2023-03-31T05:55:09;12.18;;;3.03;;
18929;SDS011;43305;52.186;5.598;2023-03-31T05:57:37;17.67;;;3.30;;
18929;SDS011;43305;52.186;5.598;2023-03-31T06:00:09;12.75;;;2.95;;
18929;SDS011;43305;52.186;5.598;2023-03-31T06:02:37;10.88;;;2.72;;
18929;SDS011;43305;52.186;5.598;2023-03-31T06:05:05;9.85;;;2.50;;
18929;SDS011;43305;52.186;5.598;2023-03-31T06:07:32;11.77;;;2.70;;
18929;SDS011;43305;52.186;5.598;2023-03-31T06:10:03;11.90;;;2.70;;
18929;SDS011;43305;52.186;5.598;2023-03-31T06:12:37;12.13;;;2.60;;
18929;SDS011;43305;52.186;5.598;2023-03-31T06:15:05;7.93;;;2.60;;
18929;SDS011;43305;52.186;5.598;2023-03-31T06:17:35;13.75;;;3.20;;
18929;SDS011;43305;52.186;5.598;2023-03-31T06:20:02;11.48;;;3.00;;
18929;SDS011;43305;52.186;5.598;2023-03-31T06:22:30;13.20;;;2.72;;
18929;SDS011;43305;52.186;5.598;2023-03-31T06:24:58;14.05;;;2.63;;
18929;SDS011;43305;52.186;5.598;2023-03-31T06:27:24;10.48;;;2.00;;
18929;SDS011;43305;52.186;5.598;2023-03-31T06:29:51;11.07;;;2.60;;
18929;SDS011;43305;52.186;5.598;2023-03-31T06:32:18;10.32;;;2.20;;
18929;SDS011;43305;52.186;5.598;2023-03-31T06:34:47;12.75;;;2.20;;
18929;SDS011;43305;52.186;5.598;2023-03-31T06:37:16;15.45;;;2.70;;
18929;SDS011;43305;52.186;5.598;2023-03-31T06:39:43;8.10;;;2.33;;
18929;SDS011;43305;52.186;5.598;2023-03-31T06:42:11;11.35;;;2.10;;
18929;SDS011;43305;52.186;5.598;2023-03-31T06:44:38;9.20;;;2.00;;
18929;SDS011;43305;52.186;5.598;2023-03-31T06:47:04;11.63;;;2.05;;
18929;SDS011;43305;52.186;5.598;2023-03-31T06:49:31;7.25;;;2.03;;
18929;SDS011;43305;52.186;5.598;2023-03-31T06:52:00;6.88;;;2.03;;
18929;SDS011;43305;52.186;5.598;2023-03-31T06:54:28;5.40;;;1.88;;
18929;SDS011;43305;52.186;5.598;2023-03-31T06:56:55;9.70;;;1.67;;
18929;SDS011;43305;52.186;5.598;2023-03-31T06:59:22;10.65;;;1.95;;
18929;SDS011;43305;52.186;5.598;2023-03-31T07:01:48;9.70;;;1.80;;
18929;SDS011;43305;52.186;5.598;2023-03-31T07:04:15;7.85;;;1.50;;
18929;SDS011;43305;52.186;5.598;2023-03-31T07:06:45;8.23;;;1.42;;
18929;SDS011;43305;52.186;5.598;2023-03-31T07:09:14;6.55;;;1.42;;
18929;SDS011;43305;52.186;5.598;2023-03-31T07:11:40;7.70;;;1.17;;
18929;SDS011;43305;52.186;5.598;2023-03-31T07:14:07;9.52;;;1.40;;
18929;SDS011;43305;52.186;5.598;2023-03-31T07:16:34;7.00;;;1.23;;
18929;SDS011;43305;52.186;5.598;2023-03-31T07:19:02;8.13;;;1.40;;
18929;SDS011;43305;52.186;5.598;2023-03-31T07:21:30;3.85;;;1.10;;
18929;SDS011;43305;52.186;5.598;2023-03-31T07:23:57;5.70;;;1.20;;
18929;SDS011;43305;52.186;5.598;2023-03-31T07:26:25;5.97;;;1.20;;
18929;SDS011;43305;52.186;5.598;2023-03-31T07:28:52;4.60;;;1.05;;
18929;SDS011;43305;52.186;5.598;2023-03-31T07:31:20;4.93;;;1.02;;
18929;SDS011;43305;52.186;5.598;2023-03-31T07:33:48;7.65;;;1.30;;
18929;SDS011;43305;52.186;5.598;2023-03-31T07:36:15;6.28;;;1.33;;
18929;SDS011;43305;52.186;5.598;2023-03-31T07:38:43;5.40;;;1.10;;
18929;SDS011;43305;52.186;5.598;2023-03-31T07:41:13;5.07;;;1.10;;
18929;SDS011;43305;52.186;5.598;2023-03-31T07:43:42;7.60;;;1.35;;
18929;SDS011;43305;52.186;5.598;2023-03-31T07:46:14;6.80;;;1.17;;
18929;SDS011;43305;52.186;5.598;2023-03-31T07:48:44;7.30;;;1.75;;
18929;SDS011;43305;52.186;5.598;2023-03-31T07:51:11;5.40;;;1.20;;
18929;SDS011;43305;52.186;5.598;2023-03-31T07:53:41;5.82;;;1.40;;
18929;SDS011;43305;52.186;5.598;2023-03-31T07:56:08;12.02;;;2.38;;
18929;SDS011;43305;52.186;5.598;2023-03-31T07:58:35;9.18;;;1.88;;
18929;SDS011;43305;52.186;5.598;2023-03-31T08:01:03;6.22;;;1.50;;
18929;SDS011;43305;52.186;5.598;2023-03-31T08:03:40;6.47;;;1.95;;
18929;SDS011;43305;52.186;5.598;2023-03-31T08:06:07;7.78;;;2.15;;
18929;SDS011;43305;52.186;5.598;2023-03-31T08:08:35;7.38;;;1.58;;
18929;SDS011;43305;52.186;5.598;2023-03-31T08:11:07;6.40;;;1.60;;
18929;SDS011;43305;52.186;5.598;2023-03-31T08:13:37;5.88;;;1.45;;
18929;SDS011;43305;52.186;5.598;2023-03-31T08:16:06;7.43;;;1.60;;
18929;SDS011;43305;52.186;5.598;2023-03-31T08:18:34;10.20;;;1.80;;
18929;SDS011;43305;52.186;5.598;2023-03-31T08:21:02;6.00;;;1.42;;
18929;SDS011;43305;52.186;5.598;2023-03-31T08:23:29;8.18;;;1.92;;
18929;SDS011;43305;52.186;5.598;2023-03-31T08:26:06;6.15;;;1.70;;
18929;SDS011;43305;52.186;5.598;2023-03-31T08:28:34;9.25;;;2.10;;
18929;SDS011;43305;52.186;5.598;2023-03-31T08:31:08;4.32;;;1.65;;
18929;SDS011;43305;52.186;5.598;2023-03-31T08:33:36;5.50;;;1.95;;
18929;SDS011;43305;52.186;5.598;2023-03-31T08:36:03;7.50;;;2.30;;
18929;SDS011;43305;52.186;5.598;2023-03-31T08:38:37;7.40;;;2.17;;
18929;SDS011;43305;52.186;5.598;2023-03-31T08:41:06;5.43;;;2.03;;
18929;SDS011;43305;52.186;5.598;2023-03-31T08:43:46;7.35;;;2.20;;
18929;SDS011;43305;52.186;5.598;2023-03-31T08:46:16;8.32;;;2.00;;
18929;SDS011;43305;52.186;5.598;2023-03-31T08:48:45;7.43;;;2.30;;
18929;SDS011;43305;52.186;5.598;2023-03-31T08:51:16;10.38;;;2.42;;
18929;SDS011;43305;52.186;5.598;2023-03-31T08:53:47;6.10;;;2.10;;
18929;SDS011;43305;52.186;5.598;2023-03-31T08:56:18;7.00;;;2.22;;
18929;SDS011;43305;52.186;5.598;2023-03-31T08:58:48;9.88;;;2.20;;
18929;SDS011;43305;52.186;5.598;2023-03-31T09:01:20;7.95;;;2.47;;
18929;SDS011;43305;52.186;5.598;2023-03-31T09:03:56;8.52;;;2.35;;
18929;SDS011;43305;52.186;5.598;2023-03-31T09:06:46;12.55;;;2.83;;
18929;SDS011;43305;52.186;5.598;2023-03-31T09:09:19;11.35;;;2.55;;
18929;SDS011;43305;52.186;5.598;2023-03-31T09:12:06;10.90;;;2.75;;
18929;SDS011;43305;52.186;5.598;2023-03-31T09:14:37;12.60;;;2.72;;
18929;SDS011;43305;52.186;5.598;2023-03-31T09:17:14;15.38;;;3.30;;
18929;SDS011;43305;52.186;5.598;2023-03-31T09:19:47;16.65;;;3.22;;
18929;SDS011;43305;52.186;5.598;2023-03-31T09:22:21;19.63;;;3.60;;
18929;SDS011;43305;52.186;5.598;2023-03-31T09:24:54;22.50;;;3.30;;
18929;SDS011;43305;52.186;5.598;2023-03-31T09:27:25;16.33;;;2.92;;
18929;SDS011;43305;52.186;5.598;2023-03-31T09:29:56;12.60;;;3.22;;
18929;SDS011;43305;52.186;5.598;2023-03-31T09:32:30;18.95;;;3.05;;
18929;SDS011;43305;52.186;5.598;2023-03-31T09:34:59;17.25;;;4.13;;
18929;SDS011;43305;52.186;5.598;2023-03-31T09:37:29;18.65;;;3.65;;
18929;SDS011;43305;52.186;5.598;2023-03-31T09:39:58;25.88;;;3.72;;
18929;SDS011;43305;52.186;5.598;2023-03-31T09:42:31;20.35;;;3.38;;
18929;SDS011;43305;52.186;5.598;2023-03-31T09:44:59;24.40;;;4.00;;
18929;SDS011;43305;52.186;5.598;2023-03-31T09:47:28;19.77;;;3.63;;
18929;SDS011;43305;52.186;5.598;2023-03-31T09:50:07;19.75;;;3.67;;
18929;SDS011;43305;52.186;5.598;2023-03-31T09:52:36;20.73;;;3.95;;
18929;SDS011;43305;52.186;5.598;2023-03-31T09:55:08;17.58;;;4.15;;
18929;SDS011;43305;52.186;5.598;2023-03-31T09:57:44;13.85;;;3.63;;
18929;SDS011;43305;52.186;5.598;2023-03-31T10:00:18;15.20;;;3.55;;
18929;SDS011;43305;52.186;5.598;2023-03-31T10:02:49;22.67;;;3.75;;
18929;SDS011;43305;52.186;5.598;2023-03-31T10:05:21;18.33;;;3.83;;
18929;SDS011;43305;52.186;5.598;2023-03-31T10:08:09;15.73;;;3.10;;
18929;SDS011;43305;52.186;5.598;2023-03-31T10:10:47;17.83;;;3.40;;
18929;SDS011;43305;52.186;5.598;2023-03-31T10:13:16;22.63;;;3.40;;
18929;SDS011;43305;52.186;5.598;2023-03-31T10:15:45;19.20;;;3.03;;
18929;SDS011;43305;52.186;5.598;2023-03-31T10:18:14;22.13;;;3.88;;
18929;SDS011;43305;52.186;5.598;2023-03-31T10:20:43;22.08;;;3.80;;
18929;SDS011;43305;52.186;5.598;2023-03-31T10:23:15;18.65;;;3.25;;
18929;SDS011;43305;52.186;5.598;2023-03-31T10:25:43;19.35;;;3.50;;
18929;SDS011;43305;52.186;5.598;2023-03-31T10:28:14;18.30;;;3.25;;
18929;SDS011;43305;52.186;5.598;2023-03-31T10:30:46;15.02;;;2.80;;
18929;SDS011;43305;52.186;5.598;2023-03-31T10:33:16;21.05;;;3.20;;
18929;SDS011;43305;52.186;5.598;2023-03-31T10:35:46;20.42;;;3.22;;
18929;SDS011;43305;52.186;5.598;2023-03-31T10:38:16;17.23;;;2.80;;
18929;SDS011;43305;52.186;5.598;2023-03-31T10:40:49;21.23;;;3.17;;
18929;SDS011;43305;52.186;5.598;2023-03-31T10:43:18;14.80;;;2.95;;
18929;SDS011;43305;52.186;5.598;2023-03-31T10:45:47;16.92;;;2.72;;
18929;SDS011;43305;52.186;5.598;2023-03-31T10:48:22;10.25;;;2.22;;
18929;SDS011;43305;52.186;5.598;2023-03-31T10:50:51;15.55;;;2.83;;
18929;SDS011;43305;52.186;5.598;2023-03-31T10:53:21;12.07;;;2.33;;
18929;SDS011;43305;52.186;5.598;2023-03-31T10:55:52;13.02;;;2.72;;
18929;SDS011;43305;52.186;5.598;2023-03-31T10:58:38;15.20;;;2.80;;
18929;SDS011;43305;52.186;5.598;2023-03-31T11:01:20;15.98;;;3.15;;
18929;SDS011;43305;52.186;5.598;2023-03-31T11:06:54;18.38;;;3.05;;
18929;SDS011;43305;52.186;5.598;2023-03-31T11:09:31;11.30;;;2.45;;
18929;SDS011;43305;52.186;5.598;2023-03-31T11:12:06;14.05;;;2.22;;
18929;SDS011;43305;52.186;5.598;2023-03-31T11:14:43;14.25;;;2.67;;
18929;SDS011;43305;52.186;5.598;2023-03-31T11:17:25;15.43;;;2.05;;
18929;SDS011;43305;52.186;5.598;2023-03-31T11:20:05;12.20;;;2.25;;
18929;SDS011;43305;52.186;5.598;2023-03-31T11:22:41;16.08;;;2.25;;
18929;SDS011;43305;52.186;5.598;2023-03-31T11:25:18;12.75;;;2.50;;
18929;SDS011;43305;52.186;5.598;2023-03-31T11:27:55;16.33;;;2.42;;
18929;SDS011;43305;52.186;5.598;2023-03-31T11:30:47;13.85;;;2.28;;
18929;SDS011;43305;52.186;5.598;2023-03-31T11:33:23;12.05;;;2.08;;
18929;SDS011;43305;52.186;5.598;2023-03-31T11:36:23;11.35;;;1.98;;
18929;SDS011;43305;52.186;5.598;2023-03-31T11:39:09;12.25;;;2.10;;
18929;SDS011;43305;52.186;5.598;2023-03-31T11:41:49;16.48;;;2.53;;
18929;SDS011;43305;52.186;5.598;2023-03-31T11:44:17;11.98;;;2.45;;
18929;SDS011;43305;52.186;5.598;2023-03-31T11:46:47;15.73;;;2.53;;
18929;SDS011;43305;52.186;5.598;2023-03-31T11:49:19;12.98;;;2.30;;
18929;SDS011;43305;52.186;5.598;2023-03-31T11:51:52;9.90;;;2.20;;
18929;SDS011;43305;52.186;5.598;2023-03-31T11:54:23;11.68;;;2.10;;
18929;SDS011;43305;52.186;5.598;2023-03-31T11:56:54;12.82;;;2.40;;
18929;SDS011;43305;52.186;5.598;2023-03-31T11:59:22;17.40;;;2.50;;
18929;SDS011;43305;52.186;5.598;2023-03-31T12:01:55;15.10;;;2.65;;
18929;SDS011;43305;52.186;5.598;2023-03-31T12:04:31;15.80;;;2.47;;
18929;SDS011;43305;52.186;5.598;2023-03-31T12:07:03;18.55;;;2.65;;
18929;SDS011;43305;52.186;5.598;2023-03-31T12:09:47;21.83;;;3.20;;
18929;SDS011;43305;52.186;5.598;2023-03-31T12:12:19;17.20;;;3.08;;
18929;SDS011;43305;52.186;5.598;2023-03-31T12:14:54;16.10;;;3.22;;
18929;SDS011;43305;52.186;5.598;2023-03-31T12:17:28;16.55;;;2.85;;
18929;SDS011;43305;52.186;5.598;2023-03-31T12:19:57;16.50;;;3.30;;
18929;SDS011;43305;52.186;5.598;2023-03-31T12:22:32;17.35;;;3.08;;
18929;SDS011;43305;52.186;5.598;2023-03-31T12:25:13;20.00;;;3.38;;
18929;SDS011;43305;52.186;5.598;2023-03-31T12:27:46;19.10;;;2.67;;
18929;SDS011;43305;52.186;5.598;2023-03-31T12:30:16;15.95;;;2.58;;
18929;SDS011;43305;52.186;5.598;2023-03-31T12:32:54;13.05;;;3.13;;
18929;SDS011;43305;52.186;5.598;2023-03-31T12:35:27;13.70;;;2.78;;
18929;SDS011;43305;52.186;5.598;2023-03-31T12:38:16;15.05;;;2.80;;
18929;SDS011;43305;52.186;5.598;2023-03-31T12:41:00;14.95;;;2.80;;
18929;SDS011;43305;52.186;5.598;2023-03-31T12:43:42;19.13;;;3.10;;
18929;SDS011;43305;52.186;5.598;2023-03-31T12:49:38;16.75;;;2.90;;
18929;SDS011;43305;52.186;5.598;2023-03-31T12:52:15;19.90;;;4.13;;
18929;SDS011;43305;52.186;5.598;2023-03-31T12:55:03;14.05;;;2.90;;
18929;SDS011;43305;52.186;5.598;2023-03-31T12:57:46;19.48;;;3.20;;
18929;SDS011;43305;52.186;5.598;2023-03-31T13:00:23;13.40;;;3.05;;
18929;SDS011;43305;52.186;5.598;2023-03-31T13:05:52;15.38;;;2.50;;
18929;SDS011;43305;52.186;5.598;2023-03-31T13:11:17;15.57;;;2.78;;
18929;SDS011;43305;52.186;5.598;2023-03-31T13:13:46;15.85;;;3.00;;
18929;SDS011;43305;52.186;5.598;2023-03-31T13:16:26;22.23;;;2.97;;
18929;SDS011;43305;52.186;5.598;2023-03-31T13:18:54;18.17;;;3.05;;
18929;SDS011;43305;52.186;5.598;2023-03-31T13:21:22;14.25;;;2.75;;
18929;SDS011;43305;52.186;5.598;2023-03-31T13:23:50;10.93;;;2.50;;
18929;SDS011;43305;52.186;5.598;2023-03-31T13:29:18;16.05;;;2.65;;
18929;SDS011;43305;52.186;5.598;2023-03-31T13:32:06;14.98;;;2.97;;
18929;SDS011;43305;52.186;5.598;2023-03-31T13:34:47;16.55;;;2.88;;
18929;SDS011;43305;52.186;5.598;2023-03-31T13:37:31;14.65;;;2.88;;
18929;SDS011;43305;52.186;5.598;2023-03-31T13:43:13;9.48;;;2.35;;
18929;SDS011;43305;52.186;5.598;2023-03-31T13:46:23;7.93;;;1.90;;
18929;SDS011;43305;52.186;5.598;2023-03-31T13:49:23;15.82;;;3.05;;
18929;SDS011;43305;52.186;5.598;2023-03-31T13:52:08;13.82;;;2.53;;
18929;SDS011;43305;52.186;5.598;2023-03-31T14:00:32;13.32;;;2.10;;
18929;SDS011;43305;52.186;5.598;2023-03-31T14:03:12;17.55;;;2.45;;
18929;SDS011;43305;52.186;5.598;2023-03-31T14:05:49;16.83;;;2.40;;
18929;SDS011;43305;52.186;5.598;2023-03-31T14:11:16;16.67;;;2.20;;
18929;SDS011;43305;52.186;5.598;2023-03-31T14:13:57;12.13;;;2.15;;
18929;SDS011;43305;52.186;5.598;2023-03-31T14:16:26;12.60;;;1.92;;
18929;SDS011;43305;52.186;5.598;2023-03-31T14:18:56;9.88;;;1.83;;
18929;SDS011;43305;52.186;5.598;2023-03-31T14:21:33;11.80;;;2.10;;
18929;SDS011;43305;52.186;5.598;2023-03-31T14:24:09;9.57;;;2.10;;
18929;SDS011;43305;52.186;5.598;2023-03-31T14:26:45;8.07;;;1.92;;
18929;SDS011;43305;52.186;5.598;2023-03-31T14:29:19;8.00;;;2.03;;
18929;SDS011;43305;52.186;5.598;2023-03-31T14:31:53;7.95;;;2.10;;
18929;SDS011;43305;52.186;5.598;2023-03-31T14:37:21;12.07;;;2.40;;
18929;SDS011;43305;52.186;5.598;2023-03-31T14:39:49;12.88;;;2.20;;
18929;SDS011;43305;52.186;5.598;2023-03-31T14:42:23;9.38;;;1.92;;
18929;SDS011;43305;52.186;5.598;2023-03-31T14:44:54;9.25;;;1.92;;
18929;SDS011;43305;52.186;5.598;2023-03-31T14:47:24;6.15;;;1.80;;
18929;SDS011;43305;52.186;5.598;2023-03-31T14:49:59;8.77;;;2.28;;
18929;SDS011;43305;52.186;5.598;2023-03-31T14:52:29;3.90;;;1.40;;
18929;SDS011;43305;52.186;5.598;2023-03-31T14:54:59;7.45;;;1.55;;
18929;SDS011;43305;52.186;5.598;2023-03-31T14:57:27;6.93;;;1.48;;
18929;SDS011;43305;52.186;5.598;2023-03-31T14:59:57;7.38;;;1.80;;
18929;SDS011;43305;52.186;5.598;2023-03-31T15:02:32;6.18;;;1.60;;
18929;SDS011;43305;52.186;5.598;2023-03-31T15:05:04;6.50;;;1.60;;
18929;SDS011;43305;52.186;5.598;2023-03-31T15:07:33;8.90;;;1.77;;
18929;SDS011;43305;52.186;5.598;2023-03-31T15:10:06;9.52;;;1.63;;
18929;SDS011;43305;52.186;5.598;2023-03-31T15:12:36;8.10;;;1.90;;
18929;SDS011;43305;52.186;5.598;2023-03-31T15:15:03;6.55;;;1.70;;
18929;SDS011;43305;52.186;5.598;2023-03-31T15:17:37;6.50;;;1.80;;
18929;SDS011;43305;52.186;5.598;2023-03-31T15:22:52;6.18;;;1.50;;
18929;SDS011;43305;52.186;5.598;2023-03-31T15:25:19;4.07;;;1.17;;
18929;SDS011;43305;52.186;5.598;2023-03-31T15:27:48;6.72;;;1.52;;
18929;SDS011;43305;52.186;5.598;2023-03-31T15:30:18;7.95;;;1.58;;
18929;SDS011;43305;52.186;5.598;2023-03-31T15:32:51;7.20;;;1.73;;
18929;SDS011;43305;52.186;5.598;2023-03-31T15:35:20;7.68;;;2.00;;
18929;SDS011;43305;52.186;5.598;2023-03-31T15:37:50;10.30;;;2.70;;
18929;SDS011;43305;52.186;5.598;2023-03-31T15:40:21;6.07;;;1.90;;
18929;SDS011;43305;52.186;5.598;2023-03-31T15:42:51;5.07;;;2.05;;
18929;SDS011;43305;52.186;5.598;2023-03-31T15:45:35;6.03;;;1.77;;
18929;SDS011;43305;52.186;5.598;2023-03-31T15:48:11;9.18;;;1.73;;
18929;SDS011;43305;52.186;5.598;2023-03-31T15:50:45;3.58;;;1.08;;
18929;SDS011;43305;52.186;5.598;2023-03-31T15:53:24;5.85;;;1.75;;
18929;SDS011;43305;52.186;5.598;2023-03-31T15:55:53;3.17;;;1.50;;
18929;SDS011;43305;52.186;5.598;2023-03-31T15:58:24;5.60;;;2.10;;
18929;SDS011;43305;52.186;5.598;2023-03-31T16:01:21;6.57;;;2.33;;
18929;SDS011;43305;52.186;5.598;2023-03-31T16:03:52;9.32;;;2.95;;
18929;SDS011;43305;52.186;5.598;2023-03-31T16:06:21;7.60;;;2.50;;